Alvy, WV

11:48 AM EDT on October 23, 2014 (GMT -0400)
Curtisville | Change Station
CLOSE
Current Station
Personal Weather Station
Location: Mannington, WV
Elevation: 1017 ft
Nearby Weather Stations

Elev 1017 ft 39.52 °N, 80.44 °W | Updated 12 minutes ago

Overcast
Overcast
51.8 °F
Feels Like 51.8 °F
N
3.2
Wind Variable Wind from West

Today
High -- | Low -- °F
--% Chance of Precip.
Yesterday
High -- | Low -- °F
Precip. -- in
7:40 AM 6:32 PM
Waning Crescent, 0% visible
Pressure 30.16 in
Visibility 10.0 miles
Clouds Overcast 1600 ft
Dew Point 46 °F
Humidity 80%
Rainfall 0.00 in
Snow Depth Not available.
UV 1 out of 12
Pollen .70 out of 12
Air Quality Not available.
Flu Activity Sporadic
METAR KCKB 231453Z 31004KT 10SM OVC016 09/06 A3017 RMK AO2 SLP213 T00890061 51003

More Conditions Fewer Conditions

Pressure 30.16 in
Visibility 10.0 miles
Clouds Overcast 1600 ft
Dew Point 46 °F
Humidity 80%
Rainfall 0.00 in
Snow Depth Not available.
UV 1 out of 12
Pollen .70 out of 12
Air Quality Not available.
Flu Activity Sporadic
METAR KCKB 231453Z 31004KT 10SM OVC016 09/06 A3017 RMK AO2 SLP213 T00890061 51003

More Conditions Fewer Conditions

10-Day Weather Forecast

Almanac

Astronomy

Oct. 23, 2014 Rise Set
Actual Time 7:40 AM EDT 6:32 PM EDT
Civil Twilight 7:13 AM EDT 6:59 PM EDT
Nautical Twilight 6:42 AM EDT 7:30 PM EDT
Astronomical Twilight 6:10 AM EDT 8:02 PM EDT
Moon 7:19 AM EDT 6:32 PM EDT
Length of Visible Light 11h 46m
Length of Day
10h 51m
Tomorrow will be 2m 24s shorter.
Waning Crescent, 0% of the Moon is Illuminated
Today
Waning Crescent
Oct 23
New
Oct 30
First Quarter
Nov 6
Full
Nov 14
Last Quarter

Today's Extremes

State Highs State Lows

Community

WunderPhotos

Upload Photos

1,764,288 photos uploaded!

WunderBlogs® & News

Nearby

Snow Depth

Station Depth Elevation
No new snow has been reported.

Earthquake Activity

City Distance Mag. Time & Date
No recent earthquake activity has been reported nearby.
Minimum magnitude displayed is 2.5.

Coastal Water Temperatures

Place Temperature
No Stations Reporting

Nearby Weather Stations